Time;durP1;ratioP1;P1;durP2;ratioP2;P2;SDS_P1;SDS_P2;PMS_P1;PMS_P2;Temp;Humidity;BMP_temperature;BMP_pressure;BME280_temperature;BME280_humidity;BME280_pressure;Samples;Min_cycle;Max_cycle;Signal;HPM_P1;HPM_P2
2023/12/12 00:02:44;;;;;;;1.70;1.60;;;;;;;;;;10362837;28;20948;-73
2023/12/12 00:07:44;;;;;;;4.53;2.00;;;;;;;;;;10362127;28;20647;-73
2023/12/12 00:12:45;;;;;;;3.03;2.07;;;;;;;;;;10363139;28;20193;-73
2023/12/12 00:17:45;;;;;;;5.90;2.00;;;;;;;;;;10361956;28;20670;-74
2023/12/12 00:22:45;;;;;;;5.73;1.93;;;;;;;;;;10362200;28;20717;-73
2023/12/12 00:27:45;;;;;;;5.50;2.30;;;;;;;;;;10361838;28;20220;-73
2023/12/12 00:32:45;;;;;;;3.53;1.80;;;;;;;;;;10362061;28;20212;-73
2023/12/12 00:37:46;;;;;;;3.97;1.90;;;;;;;;;;10361576;28;20205;-72
2023/12/12 00:42:46;;;;;;;4.90;2.00;;;;;;;;;;10361588;28;20559;-72
2023/12/12 00:47:46;;;;;;;7.63;2.80;;;;;;;;;;10360713;28;20257;-72
2023/12/12 00:52:46;;;;;;;5.10;2.33;;;;;;;;;;10360892;28;20220;-72
2023/12/12 00:57:47;;;;;;;3.77;2.10;;;;;;;;;;10361311;28;20268;-72
2023/12/12 01:02:47;;;;;;;7.47;2.63;;;;;;;;;;10359480;28;20463;-72
2023/12/12 01:07:47;;;;;;;5.50;3.23;;;;;;;;;;10361256;28;20200;-73
2023/12/12 01:12:47;;;;;;;5.27;3.10;;;;;;;;;;10360394;28;20185;-72
2023/12/12 01:17:48;;;;;;;4.70;2.43;;;;;;;;;;10360205;28;20213;-72
2023/12/12 01:22:48;;;;;;;4.83;2.80;;;;;;;;;;10360716;28;20241;-72
2023/12/12 01:27:48;;;;;;;7.50;2.50;;;;;;;;;;10359525;28;20769;-72
2023/12/12 01:32:49;;;;;;;4.93;2.53;;;;;;;;;;10359870;28;20193;-72
2023/12/12 01:37:49;;;;;;;3.33;2.20;;;;;;;;;;10359389;28;20193;-72
2023/12/12 01:42:49;;;;;;;4.87;2.10;;;;;;;;;;10359952;28;20590;-72
2023/12/12 01:47:49;;;;;;;4.80;2.17;;;;;;;;;;10357889;28;20642;-72
2023/12/12 01:52:50;;;;;;;4.93;1.67;;;;;;;;;;10359681;28;20185;-73
2023/12/12 01:57:50;;;;;;;3.60;1.50;;;;;;;;;;10355700;28;20678;-72
2023/12/12 02:02:50;;;;;;;2.63;1.60;;;;;;;;;;10356688;28;20283;-72
2023/12/12 02:07:52;;;;;;;2.73;1.67;;;;;;;;;;10359713;28;20181;-73
2023/12/12 02:12:53;;;;;;;2.50;1.90;;;;;;;;;;10361922;28;20621;-73
2023/12/12 02:17:53;;;;;;;2.20;2.00;;;;;;;;;;10367324;28;20213;-73
2023/12/12 02:22:53;;;;;;;3.83;2.10;;;;;;;;;;10366564;28;20339;-73
2023/12/12 02:27:55;;;;;;;3.03;2.50;;;;;;;;;;10366294;28;20526;-73
2023/12/12 02:32:56;;;;;;;5.80;2.77;;;;;;;;;;10366540;28;20244;-73
2023/12/12 02:37:57;;;;;;;3.60;2.57;;;;;;;;;;10365965;28;20280;-73
2023/12/12 02:42:57;;;;;;;2.60;2.10;;;;;;;;;;10366154;28;20671;-72
2023/12/12 02:47:57;;;;;;;2.83;2.50;;;;;;;;;;10366087;28;20178;-73
2023/12/12 02:52:57;;;;;;;5.10;3.33;;;;;;;;;;10365694;28;20244;-72
2023/12/12 02:57:57;;;;;;;2.73;2.53;;;;;;;;;;10365150;28;20185;-72
2023/12/12 03:02:58;;;;;;;6.53;3.03;;;;;;;;;;10365384;28;20626;-72
2023/12/12 03:07:58;;;;;;;3.97;2.80;;;;;;;;;;10368193;28;20190;-73
2023/12/12 03:12:58;;;;;;;3.30;2.87;;;;;;;;;;10367108;28;20189;-72
2023/12/12 03:17:58;;;;;;;7.00;3.47;;;;;;;;;;10382898;28;20647;-73
2023/12/12 03:22:59;;;;;;;5.33;3.23;;;;;;;;;;10366599;28;20204;-73
2023/12/12 03:27:59;;;;;;;4.40;3.07;;;;;;;;;;10367121;28;20229;-73
2023/12/12 03:32:59;;;;;;;6.73;2.90;;;;;;;;;;10366909;28;20244;-72
2023/12/12 03:37:59;;;;;;;3.93;2.93;;;;;;;;;;10367227;28;20177;-73
2023/12/12 03:42:59;;;;;;;5.47;2.73;;;;;;;;;;10365882;28;20691;-72
2023/12/12 03:48:00;;;;;;;3.87;3.20;;;;;;;;;;10366721;28;20192;-73
2023/12/12 03:53:00;;;;;;;5.40;3.13;;;;;;;;;;10366071;28;20209;-73
2023/12/12 03:58:00;;;;;;;4.13;2.80;;;;;;;;;;10362339;28;20728;-73
2023/12/12 04:03:00;;;;;;;4.23;3.07;;;;;;;;;;10365452;28;20217;-72
2023/12/12 04:08:01;;;;;;;3.73;2.77;;;;;;;;;;10361774;28;20182;-73
2023/12/12 04:13:01;;;;;;;4.60;3.37;;;;;;;;;;10360912;28;20200;-73
2023/12/12 04:18:01;;;;;;;4.47;3.10;;;;;;;;;;10364483;28;20193;-72
2023/12/12 04:23:02;;;;;;;5.17;3.80;;;;;;;;;;10363636;28;20213;-73
2023/12/12 04:28:02;;;;;;;4.97;3.00;;;;;;;;;;10361302;28;20229;-73
2023/12/12 04:33:02;;;;;;;4.67;3.23;;;;;;;;;;10353717;28;20313;-73
2023/12/12 04:38:03;;;;;;;3.13;2.83;;;;;;;;;;10360921;28;20200;-73
2023/12/12 04:43:03;;;;;;;6.03;3.10;;;;;;;;;;10360861;28;20359;-72
2023/12/12 04:48:03;;;;;;;3.40;3.00;;;;;;;;;;10337626;28;20233;-73
2023/12/12 04:53:03;;;;;;;4.43;2.73;;;;;;;;;;10352166;28;20432;-73
2023/12/12 04:58:04;;;;;;;3.63;2.50;;;;;;;;;;10356544;28;20934;-73
2023/12/12 05:03:04;;;;;;;4.30;2.80;;;;;;;;;;10359591;28;20217;-73
2023/12/12 05:08:04;;;;;;;4.90;2.60;;;;;;;;;;10356963;28;20756;-73
2023/12/12 05:13:04;;;;;;;3.07;2.70;;;;;;;;;;10357065;28;20201;-73
2023/12/12 05:18:07;;;;;;;4.07;2.60;;;;;;;;;;10357706;28;20193;-72
2023/12/12 05:23:07;;;;;;;4.97;2.70;;;;;;;;;;10354358;28;20228;-72
2023/12/12 05:28:08;;;;;;;6.53;3.57;;;;;;;;;;10349744;28;20576;-72
2023/12/12 05:33:08;;;;;;;9.07;3.90;;;;;;;;;;10356393;28;20669;-73
2023/12/12 05:38:08;;;;;;;5.73;3.53;;;;;;;;;;10356361;28;20297;-73
2023/12/12 05:43:09;;;;;;;3.87;3.07;;;;;;;;;;10356610;28;20301;-73
2023/12/12 05:48:09;;;;;;;5.77;4.40;;;;;;;;;;10362329;28;20205;-73
2023/12/12 05:53:10;;;;;;;5.90;3.80;;;;;;;;;;10369973;28;20193;-73
2023/12/12 05:58:10;;;;;;;7.13;3.57;;;;;;;;;;10370305;28;20717;-73
2023/12/12 06:03:11;;;;;;;6.00;4.03;;;;;;;;;;10369759;28;20303;-73
2023/12/12 06:08:11;;;;;;;7.63;5.70;;;;;;;;;;10369414;28;20273;-73
2023/12/12 06:13:11;;;;;;;8.60;3.90;;;;;;;;;;10369348;28;20197;-72
2023/12/12 06:18:12;;;;;;;9.23;5.20;;;;;;;;;;10370141;28;20284;-71
2023/12/12 06:23:13;;;;;;;7.33;4.60;;;;;;;;;;10368254;28;20836;-73
2023/12/12 06:28:13;;;;;;;6.50;4.37;;;;;;;;;;10369286;28;20239;-72
2023/12/12 06:33:13;;;;;;;6.17;4.00;;;;;;;;;;10368664;28;20191;-72
2023/12/12 06:38:13;;;;;;;5.20;4.10;;;;;;;;;;10364433;28;20285;-73
2023/12/12 06:43:14;;;;;;;6.43;4.37;;;;;;;;;;10369827;28;20584;-73
2023/12/12 06:48:15;;;;;;;9.53;4.53;;;;;;;;;;10368958;28;20506;-74
2023/12/12 06:53:15;;;;;;;6.50;4.73;;;;;;;;;;10369208;28;20177;-74
2023/12/12 06:58:18;;;;;;;8.23;4.40;;;;;;;;;;10365932;28;20546;-73
2023/12/12 07:03:18;;;;;;;8.27;3.67;;;;;;;;;;10361985;28;20217;-73
2023/12/12 07:08:19;;;;;;;6.73;4.50;;;;;;;;;;10354196;28;20208;-73
2023/12/12 07:13:19;;;;;;;8.73;4.50;;;;;;;;;;10347224;28;20812;-73
2023/12/12 07:18:20;;;;;;;8.97;5.13;;;;;;;;;;10356415;28;20185;-73
2023/12/12 07:23:20;;;;;;;7.97;5.40;;;;;;;;;;10357898;28;20225;-73
2023/12/12 07:28:21;;;;;;;10.00;5.37;;;;;;;;;;10361411;28;20236;-73
2023/12/12 07:33:21;;;;;;;7.67;5.13;;;;;;;;;;10361072;28;20240;-73
2023/12/12 07:38:21;;;;;;;6.43;4.53;;;;;;;;;;10347069;28;20264;-73
2023/12/12 07:43:22;;;;;;;15.90;5.00;;;;;;;;;;10344112;28;20225;-73
2023/12/12 07:48:22;;;;;;;14.50;5.27;;;;;;;;;;10358040;28;20543;-73
2023/12/12 07:53:22;;;;;;;8.00;4.00;;;;;;;;;;10355935;28;20197;-73
2023/12/12 07:58:22;;;;;;;7.73;3.70;;;;;;;;;;10357292;28;20531;-73
2023/12/12 08:03:23;;;;;;;5.73;3.43;;;;;;;;;;10343256;28;20479;-73
2023/12/12 08:08:23;;;;;;;8.00;4.17;;;;;;;;;;10352943;28;20186;-73
2023/12/12 08:13:23;;;;;;;5.80;3.63;;;;;;;;;;10357850;28;20538;-73
2023/12/12 08:18:23;;;;;;;7.28;3.22;;;;;;;;;;10349164;28;20874;-73
2023/12/12 08:23:24;;;;;;;9.47;3.30;;;;;;;;;;10347321;28;20275;-73
2023/12/12 08:28:25;;;;;;;6.37;3.07;;;;;;;;;;10349841;28;20225;-73
2023/12/12 08:33:25;;;;;;;5.77;2.70;;;;;;;;;;10347835;28;20502;-73
2023/12/12 08:38:25;;;;;;;5.27;2.67;;;;;;;;;;10349599;28;20192;-73
2023/12/12 08:43:25;;;;;;;11.97;3.40;;;;;;;;;;10355862;28;20205;-73
2023/12/12 08:48:26;;;;;;;8.63;3.00;;;;;;;;;;10351872;28;20184;-74
2023/12/12 08:53:26;;;;;;;4.83;2.40;;;;;;;;;;10353617;28;20252;-74
2023/12/12 08:58:27;;;;;;;7.27;2.77;;;;;;;;;;10355031;28;20758;-74
2023/12/12 09:03:27;;;;;;;10.17;2.40;;;;;;;;;;10350371;28;20545;-74
2023/12/12 09:08:27;;;;;;;8.80;2.87;;;;;;;;;;10348076;28;20579;-74
2023/12/12 09:13:28;;;;;;;12.17;3.17;;;;;;;;;;10351267;28;20197;-74
2023/12/12 09:18:28;;;;;;;5.63;2.50;;;;;;;;;;10354723;28;20321;-74
2023/12/12 09:23:28;;;;;;;9.70;2.70;;;;;;;;;;10354789;28;20246;-73
2023/12/12 09:28:29;;;;;;;8.93;2.47;;;;;;;;;;10356031;28;20303;-73
2023/12/12 09:33:29;;;;;;;9.73;2.30;;;;;;;;;;10354275;28;20208;-74
2023/12/12 09:38:29;;;;;;;11.53;2.97;;;;;;;;;;10351128;28;20197;-73
2023/12/12 09:43:30;;;;;;;8.43;3.17;;;;;;;;;;10352703;28;20217;-74
2023/12/12 09:48:31;;;;;;;5.30;2.40;;;;;;;;;;10353345;28;20193;-73
2023/12/12 09:53:35;;;;;;;10.00;3.10;;;;;;;;;;10352339;28;20562;-74
2023/12/12 09:58:35;;;;;;;10.73;2.77;;;;;;;;;;10350572;28;20220;-73
2023/12/12 10:03:35;;;;;;;7.03;2.83;;;;;;;;;;10355267;28;20217;-73
2023/12/12 10:08:36;;;;;;;9.60;2.80;;;;;;;;;;10350026;28;20221;-73
2023/12/12 10:13:46;;;;;;;8.17;2.70;;;;;;;;;;10353103;28;20305;-74
2023/12/12 10:18:46;;;;;;;11.43;3.53;;;;;;;;;;10353265;28;21109;-73
2023/12/12 10:23:48;;;;;;;6.63;2.40;;;;;;;;;;10352865;28;20275;-73
2023/12/12 10:28:48;;;;;;;7.40;2.30;;;;;;;;;;10352029;28;20279;-74
2023/12/12 10:33:49;;;;;;;8.47;2.57;;;;;;;;;;10357366;28;20276;-74
2023/12/12 10:38:49;;;;;;;5.87;2.13;;;;;;;;;;10357529;28;20185;-73
2023/12/12 10:43:50;;;;;;;3.37;1.80;;;;;;;;;;10345327;28;20205;-73
2023/12/12 10:48:52;;;;;;;4.70;1.83;;;;;;;;;;10354642;28;20448;-73
2023/12/12 10:53:54;;;;;;;6.00;2.00;;;;;;;;;;10357429;28;20236;-72
2023/12/12 10:58:55;;;;;;;4.93;1.97;;;;;;;;;;10360824;28;20190;-74
2023/12/12 11:03:57;;;;;;;7.90;2.00;;;;;;;;;;10361198;28;20213;-74
2023/12/12 11:08:57;;;;;;;4.43;1.37;;;;;;;;;;10360507;28;20178;-74
2023/12/12 11:14:00;;;;;;;4.70;1.57;;;;;;;;;;10358600;28;20558;-73
2023/12/12 11:19:03;;;;;;;5.22;1.73;;;;;;;;;;10357538;28;20244;-73
2023/12/12 11:24:03;;;;;;;9.55;2.13;;;;;;;;;;10335193;28;20225;-73
2023/12/12 11:29:07;;;;;;;4.18;2.08;;;;;;;;;;10353756;28;20694;-73
2023/12/12 11:34:08;;;;;;;4.53;1.52;;;;;;;;;;10334124;28;20194;-73
2023/12/12 11:39:09;;;;;;;6.40;1.60;;;;;;;;;;10357642;28;20194;-73
2023/12/12 11:44:09;;;;;;;5.13;1.87;;;;;;;;;;10353577;28;20212;-73
2023/12/12 11:49:23;;;;;;;7.47;1.93;;;;;;;;;;10352439;28;20201;-73
2023/12/12 11:54:23;;;;;;;4.87;1.57;;;;;;;;;;10355030;28;20571;-73
2023/12/12 11:59:24;;;;;;;4.97;1.37;;;;;;;;;;10355648;28;20193;-73
2023/12/12 12:04:24;;;;;;;7.17;1.57;;;;;;;;;;10354775;28;20479;-73
2023/12/12 12:09:25;;;;;;;6.30;2.03;;;;;;;;;;10355985;28;20284;-73
2023/12/12 12:14:25;;;;;;;6.50;1.90;;;;;;;;;;10355381;28;20192;-72
2023/12/12 12:19:32;;;;;;;10.50;2.10;;;;;;;;;;10355935;28;20197;-73
2023/12/12 12:24:32;;;;;;;7.83;1.80;;;;;;;;;;10361429;28;20220;-73
2023/12/12 12:29:33;;;;;;;4.70;1.80;;;;;;;;;;10360272;28;20229;-73
2023/12/12 12:34:35;;;;;;;8.87;2.03;;;;;;;;;;10358647;28;20185;-73
2023/12/12 12:39:42;;;;;;;10.53;2.10;;;;;;;;;;10357549;28;20702;-72
2023/12/12 12:44:43;;;;;;;7.83;2.00;;;;;;;;;;10355659;28;20586;-72
2023/12/12 12:49:43;;;;;;;7.93;2.20;;;;;;;;;;10357075;28;20186;-73
2023/12/12 12:54:44;;;;;;;8.27;2.00;;;;;;;;;;10355619;28;20731;-73
2023/12/12 12:59:44;;;;;;;9.73;2.30;;;;;;;;;;10354303;28;20565;-72
2023/12/12 13:04:44;;;;;;;6.87;2.23;;;;;;;;;;10359902;28;21336;-73
2023/12/12 13:09:44;;;;;;;4.97;2.40;;;;;;;;;;10355715;28;20200;-73
2023/12/12 13:14:44;;;;;;;11.47;2.00;;;;;;;;;;10354725;28;20182;-73
2023/12/12 13:19:45;;;;;;;10.33;2.20;;;;;;;;;;10356553;28;20190;-73
2023/12/12 13:24:45;;;;;;;5.63;1.90;;;;;;;;;;10353921;28;20370;-73
2023/12/12 13:29:45;;;;;;;5.73;2.17;;;;;;;;;;10356937;28;20237;-73
2023/12/12 13:34:49;;;;;;;7.47;2.10;;;;;;;;;;10355685;28;20581;-73
2023/12/12 13:39:50;;;;;;;7.93;2.37;;;;;;;;;;10356242;28;20184;-73
2023/12/12 13:44:50;;;;;;;9.33;3.13;;;;;;;;;;10353769;28;20581;-73
2023/12/12 13:49:50;;;;;;;10.10;4.90;;;;;;;;;;10356046;28;20284;-73
2023/12/12 13:54:51;;;;;;;12.23;5.30;;;;;;;;;;10356253;28;20201;-73
2023/12/12 13:59:51;;;;;;;7.10;4.07;;;;;;;;;;10351934;28;20204;-73
2023/12/12 14:04:51;;;;;;;8.23;3.20;;;;;;;;;;10354608;28;20220;-73
2023/12/12 14:09:52;;;;;;;11.00;3.10;;;;;;;;;;10356817;28;20428;-73
2023/12/12 14:14:53;;;;;;;8.10;3.00;;;;;;;;;;10363390;28;20196;-73
2023/12/12 14:19:53;;;;;;;6.30;2.23;;;;;;;;;;10363019;28;20193;-73
2023/12/12 14:24:53;;;;;;;4.53;1.90;;;;;;;;;;10358514;28;20225;-73
2023/12/12 14:29:54;;;;;;;5.70;2.00;;;;;;;;;;10360423;28;20287;-73
2023/12/12 14:34:54;;;;;;;11.13;3.10;;;;;;;;;;10362193;28;20203;-73
2023/12/12 14:39:54;;;;;;;14.43;3.00;;;;;;;;;;10359261;28;20192;-74
2023/12/12 14:44:54;;;;;;;10.87;3.03;;;;;;;;;;10362267;28;20683;-74
2023/12/12 14:49:54;;;;;;;8.03;2.60;;;;;;;;;;10361865;28;20482;-74
2023/12/12 14:54:55;;;;;;;7.00;2.00;;;;;;;;;;10344776;28;20659;-73
2023/12/12 14:59:55;;;;;;;5.00;2.23;;;;;;;;;;10357361;28;20193;-73
2023/12/12 15:04:55;;;;;;;8.67;3.53;;;;;;;;;;10359769;28;20611;-73
2023/12/12 15:09:55;;;;;;;8.30;2.80;;;;;;;;;;10355464;28;20459;-72
2023/12/12 15:14:55;;;;;;;5.83;2.60;;;;;;;;;;10358392;28;20190;-73
2023/12/12 15:19:56;;;;;;;5.63;2.47;;;;;;;;;;10371072;28;20213;-73
2023/12/12 15:24:56;;;;;;;7.07;2.33;;;;;;;;;;10358432;28;20213;-72
2023/12/12 15:29:59;;;;;;;5.70;2.30;;;;;;;;;;10366073;28;20217;-73
2023/12/12 15:34:59;;;;;;;6.77;2.10;;;;;;;;;;10345877;28;20189;-73
2023/12/12 15:40:01;;;;;;;63.43;23.63;;;;;;;;;;10368521;28;20192;-73
2023/12/12 15:45:01;;;;;;;237.57;88.57;;;;;;;;;;10330264;28;20539;-73
2023/12/12 15:50:02;;;;;;;209.40;101.60;;;;;;;;;;10340192;28;20193;-73
2023/12/12 15:55:04;;;;;;;29.37;13.83;;;;;;;;;;10357924;28;20190;-73
2023/12/12 16:00:12;;;;;;;21.83;9.80;;;;;;;;;;10357980;28;20659;-73
2023/12/12 16:05:12;;;;;;;21.33;12.97;;;;;;;;;;10350268;28;20553;-73
2023/12/12 16:10:15;;;;;;;13.03;3.73;;;;;;;;;;10351523;28;20196;-73
2023/12/12 16:15:15;;;;;;;20.77;9.67;;;;;;;;;;10346650;28;20496;-73
2023/12/12 16:20:15;;;;;;;13.53;5.10;;;;;;;;;;10349575;28;20185;-74
2023/12/12 16:25:16;;;;;;;10.80;4.17;;;;;;;;;;10358085;28;20476;-73
2023/12/12 16:30:16;;;;;;;14.80;3.70;;;;;;;;;;10353676;28;20444;-73
2023/12/12 16:35:16;;;;;;;12.67;4.23;;;;;;;;;;10342109;28;20263;-73
2023/12/12 16:40:17;;;;;;;10.57;3.80;;;;;;;;;;10352836;28;20189;-73
2023/12/12 16:45:17;;;;;;;14.07;3.70;;;;;;;;;;10356022;28;21238;-74
2023/12/12 16:50:18;;;;;;;17.03;3.40;;;;;;;;;;10357162;28;20196;-73
2023/12/12 16:55:18;;;;;;;14.73;4.50;;;;;;;;;;10356124;28;20193;-73
2023/12/12 17:00:18;;;;;;;11.63;3.63;;;;;;;;;;10356004;28;20204;-73
2023/12/12 17:05:19;;;;;;;13.20;4.03;;;;;;;;;;10359147;28;20220;-73
2023/12/12 17:10:20;;;;;;;9.40;3.17;;;;;;;;;;10353018;28;20620;-73
2023/12/12 17:15:20;;;;;;;12.87;3.67;;;;;;;;;;10353830;28;20189;-73
2023/12/12 17:20:21;;;;;;;13.53;3.77;;;;;;;;;;10355441;28;20734;-73
2023/12/12 17:25:21;;;;;;;9.67;3.13;;;;;;;;;;10353000;28;20666;-73
2023/12/12 17:30:21;;;;;;;14.90;5.87;;;;;;;;;;10357099;28;20185;-74
2023/12/12 17:35:22;;;;;;;10.57;4.00;;;;;;;;;;10357131;28;20236;-73
2023/12/12 17:40:22;;;;;;;11.53;4.20;;;;;;;;;;10357879;28;20693;-73
2023/12/12 17:45:22;;;;;;;12.43;5.67;;;;;;;;;;10360681;28;20495;-73
2023/12/12 17:50:22;;;;;;;12.17;3.37;;;;;;;;;;10357624;28;20189;-73
2023/12/12 17:55:23;;;;;;;12.83;3.60;;;;;;;;;;10358106;28;20247;-73
2023/12/12 18:00:23;;;;;;;10.37;3.60;;;;;;;;;;10356459;28;20284;-73
2023/12/12 18:05:25;;;;;;;13.13;4.13;;;;;;;;;;10345620;28;20190;-73
2023/12/12 18:10:25;;;;;;;8.10;3.83;;;;;;;;;;10327439;28;20648;-73
2023/12/12 18:15:26;;;;;;;16.17;4.63;;;;;;;;;;10355615;28;20189;-73
2023/12/12 18:20:26;;;;;;;11.50;4.97;;;;;;;;;;10355974;28;20567;-74
2023/12/12 18:25:27;;;;;;;12.87;5.07;;;;;;;;;;10355972;28;20225;-73
2023/12/12 18:30:28;;;;;;;15.83;5.57;;;;;;;;;;10356352;28;20600;-73
2023/12/12 18:35:29;;;;;;;13.73;5.90;;;;;;;;;;10355992;28;20209;-73
2023/12/12 18:40:29;;;;;;;17.27;6.70;;;;;;;;;;10343192;28;20213;-74
2023/12/12 18:45:31;;;;;;;23.70;9.60;;;;;;;;;;10347688;28;20189;-73
2023/12/12 18:50:31;;;;;;;20.40;7.10;;;;;;;;;;10350997;28;20255;-73
2023/12/12 18:55:31;;;;;;;14.77;7.03;;;;;;;;;;10356853;28;21075;-73
2023/12/12 19:00:32;;;;;;;18.93;8.63;;;;;;;;;;10355489;28;20339;-73
2023/12/12 19:05:32;;;;;;;20.53;8.43;;;;;;;;;;10362599;28;20655;-73
2023/12/12 19:10:33;;;;;;;19.87;7.00;;;;;;;;;;10360627;28;20201;-73
2023/12/12 19:15:33;;;;;;;19.57;9.00;;;;;;;;;;10363155;28;20444;-73
2023/12/12 19:20:34;;;;;;;17.53;7.87;;;;;;;;;;10361945;28;20213;-73
2023/12/12 19:25:36;;;;;;;15.83;6.40;;;;;;;;;;10359858;28;20606;-73
2023/12/12 19:30:37;;;;;;;15.73;6.83;;;;;;;;;;10362618;28;20228;-73
2023/12/12 19:35:38;;;;;;;24.50;7.00;;;;;;;;;;10360844;28;20244;-73
2023/12/12 19:40:40;;;;;;;18.60;7.70;;;;;;;;;;10361562;28;20283;-73
2023/12/12 19:45:41;;;;;;;18.00;6.73;;;;;;;;;;10362018;28;20269;-73
2023/12/12 19:50:41;;;;;;;15.97;5.07;;;;;;;;;;10358593;28;20743;-73
2023/12/12 19:55:41;;;;;;;17.03;5.53;;;;;;;;;;10361196;28;20280;-73
2023/12/12 20:00:41;;;;;;;12.90;5.17;;;;;;;;;;10360600;28;20226;-74
2023/12/12 20:05:43;;;;;;;19.80;6.10;;;;;;;;;;10360580;28;20456;-73
2023/12/12 20:10:43;;;;;;;17.63;5.33;;;;;;;;;;10360217;28;20716;-74
2023/12/12 20:15:44;;;;;;;28.77;6.43;;;;;;;;;;10359436;28;20201;-73
2023/12/12 20:20:44;;;;;;;11.87;5.20;;;;;;;;;;10359891;28;20234;-73
2023/12/12 20:25:44;;;;;;;17.67;5.03;;;;;;;;;;10358707;28;20226;-73
2023/12/12 20:30:44;;;;;;;20.33;5.43;;;;;;;;;;10354333;28;20202;-73
2023/12/12 20:35:48;;;;;;;16.77;5.77;;;;;;;;;;10359111;28;20190;-73
2023/12/12 20:40:48;;;;;;;12.27;5.50;;;;;;;;;;10358630;28;20221;-73
2023/12/12 20:45:48;;;;;;;19.70;4.47;;;;;;;;;;10359368;28;20178;-73
2023/12/12 20:50:49;;;;;;;13.50;3.90;;;;;;;;;;10358830;28;20836;-73
2023/12/12 20:55:49;;;;;;;13.00;4.20;;;;;;;;;;10358744;28;20272;-74
2023/12/12 21:00:49;;;;;;;7.13;4.00;;;;;;;;;;10360368;28;20201;-74
2023/12/12 21:05:51;;;;;;;11.50;4.17;;;;;;;;;;10358695;28;20585;-74
2023/12/12 21:10:52;;;;;;;7.73;3.30;;;;;;;;;;10328515;28;20631;-73
2023/12/12 21:15:52;;;;;;;8.37;2.43;;;;;;;;;;10333191;28;20569;-73
2023/12/12 21:20:52;;;;;;;12.80;3.00;;;;;;;;;;10334678;28;20217;-74
2023/12/12 21:25:53;;;;;;;11.10;2.93;;;;;;;;;;10319726;28;20549;-74
2023/12/12 21:30:53;;;;;;;5.20;3.07;;;;;;;;;;10354134;28;20193;-73
2023/12/12 21:35:53;;;;;;;14.63;2.83;;;;;;;;;;10359166;28;20435;-72
2023/12/12 21:40:53;;;;;;;11.73;2.00;;;;;;;;;;10357511;28;20706;-73
2023/12/12 21:45:54;;;;;;;13.93;2.10;;;;;;;;;;10356075;28;20185;-73
2023/12/12 21:50:54;;;;;;;12.17;2.77;;;;;;;;;;10357356;28;20185;-73
2023/12/12 21:55:54;;;;;;;9.47;3.23;;;;;;;;;;10353100;28;20188;-73
2023/12/12 22:00:54;;;;;;;13.83;2.73;;;;;;;;;;10357469;28;20224;-73
2023/12/12 22:24:32;;;;;;;7.87;2.70;;;;;;;;;;10354902;28;20221;-73
2023/12/12 22:29:32;;;;;;;10.17;2.20;;;;;;;;;;10350014;28;20224;-73
2023/12/12 22:34:33;;;;;;;9.90;2.20;;;;;;;;;;10359985;28;20564;-73
2023/12/12 22:39:33;;;;;;;12.00;2.80;;;;;;;;;;10362498;28;20193;-73
2023/12/12 22:44:34;;;;;;;5.67;2.27;;;;;;;;;;10361962;28;20686;-73
2023/12/12 22:49:34;;;;;;;6.30;2.70;;;;;;;;;;10360920;28;20798;-73
2023/12/12 22:54:34;;;;;;;6.63;2.33;;;;;;;;;;10361884;28;20193;-73
2023/12/12 22:59:35;;;;;;;6.77;2.00;;;;;;;;;;10362159;28;20736;-72
2023/12/12 23:04:38;;;;;;;5.57;2.80;;;;;;;;;;10359478;28;20425;-73
2023/12/12 23:09:38;;;;;;;5.83;2.60;;;;;;;;;;10360942;28;20190;-73
2023/12/12 23:14:38;;;;;;;5.27;2.97;;;;;;;;;;10359991;28;20252;-73
2023/12/12 23:19:39;;;;;;;5.47;3.00;;;;;;;;;;10361042;28;20464;-73
2023/12/12 23:24:39;;;;;;;7.40;3.67;;;;;;;;;;10359366;28;20214;-72
2023/12/12 23:29:39;;;;;;;3.13;2.50;;;;;;;;;;10359962;28;20715;-73
2023/12/12 23:34:46;;;;;;;9.07;3.90;;;;;;;;;;10359818;28;20193;-73
2023/12/12 23:39:46;;;;;;;5.63;3.77;;;;;;;;;;10359479;28;20201;-73
2023/12/12 23:44:46;;;;;;;3.97;3.47;;;;;;;;;;10357963;28;20547;-73
2023/12/12 23:49:47;;;;;;;6.97;4.30;;;;;;;;;;10360199;28;20190;-73
2023/12/12 23:54:47;;;;;;;6.47;5.00;;;;;;;;;;10359035;28;20648;-73
2023/12/12 23:59:48;;;;;;;4.47;3.43;;;;;;;;;;10359204;28;20595;-73
